M I D A S
Marine Information and Data Acquisition System
Tripno 1005 of the Zeeleeuw from 2005-09-08 06:19:00 to 2005-09-08 12:46:35
Back to CruiseResearch ActivitiesStationsMapUnderway DataData graphs

EquipmentUnitsComments
TimeDGPSUTC
LatitudeDGPSDM.mWGS84
LongitudeDGPSDM.mWGS84
SpeedMeteo Stationm/sRelative wind speed
DirectionMeteo StationdegRelative wind direction
TemperatureMeteo Stationdeg CelciusAir temperature
PressureMeteo StationPaAtmospheric pressure
HumidityMeteo Station%Relative humidity
Missing or incorrect values are displayed as -999
Metereological data collected by the RV Zeeleeuw from 2005-09-08 06:14:50 to 2005-09-08 13:52:24
Time Latitude Longitude Speed Direction Temperature Pressure Humidity
2005-09-08 06:15 51°13.588 2°56.1 2.6 26 16.1 101330 82
2005-09-08 06:16 51°13.56 2°56.159 2.6 36 16.2 101330 82
2005-09-08 06:17 51°13.534 2°56.189 0.5 21 16.2 101330 81
2005-09-08 06:18 51°13.534 2°56.184 2.2 5 16.2 101330 81
2005-09-08 06:19 51°13.548 2°56.201 1.2 25 16.3 101340 81
2005-09-08 06:20 51°13.546 2°56.153 2 357 16.4 101340 81
2005-09-08 06:21 51°13.605 2°56.009 4.1 360 16.4 101340 80
2005-09-08 06:22 51°13.68 2°55.832 3.6 341 16.5 101340 80
2005-09-08 06:23 51°13.774 2°55.683 3.4 331 16.5 101340 80
2005-09-08 06:24 51°13.897 2°55.579 3.3 348 16.6 101340 80
2005-09-08 06:25 51°14.034 2°55.48 3.5 338 16.7 101340 79
2005-09-08 06:26 51°14.168 2°55.376 3.3 331 16.9 101340 78
2005-09-08 06:27 51°14.278 2°55.194 4.4 228 17 101340 77
2005-09-08 06:28 51°14.381 2°54.979 5.8 315 17.1 101330 78
2005-09-08 06:29 51°14.542 2°54.772 5.3 321 17.3 101330 77
2005-09-08 06:30 51°14.731 2°54.603 4.8 317 17.4 101330 76
2005-09-08 06:31 51°14.927 2°54.438 4.4 317 17.4 101340 77
2005-09-08 06:32 51°15.117 2°54.271 5.1 318 17.4 101340 77
2005-09-08 06:33 51°15.315 2°54.099 4.9 321 17.4 101340 78
2005-09-08 06:34 51°15.51 2°53.919 5.5 322 17.5 101330 78
2005-09-08 06:35 51°15.704 2°53.745 4.8 317 17.5 101340 79
2005-09-08 06:36 51°15.901 2°53.573 5.3 317 17.5 101330 78
2005-09-08 06:37 51°16.097 2°53.407 5.1 313 17.5 101330 79
2005-09-08 06:38 51°16.297 2°53.238 4.8 43 17.5 101330 79
2005-09-08 06:39 51°16.5 2°53.072 4.5 319 17.5 101330 80
2005-09-08 06:40 51°16.7 2°52.902 4.1 322 17.6 101330 80
2005-09-08 06:41 51°16.899 2°52.738 4.5 42 17.6 101340 80
2005-09-08 06:42 51°17.102 2°52.576 4.4 44 17.6 101340 80
2005-09-08 06:43 51°17.314 2°52.441 4.5 318 17.6 101340 80
2005-09-08 06:44 51°17.519 2°52.301 4.4 316 17.7 101340 80
2005-09-08 06:45 51°17.731 2°52.184 3.7 331 17.7 101340 81
2005-09-08 06:46 51°17.944 2°52.077 4 316 17.7 101340 81
2005-09-08 06:47 51°18.155 2°51.969 4 318 17.8 101350 81
2005-09-08 06:48 51°18.365 2°51.858 3.7 318 17.8 101340 81
2005-09-08 06:49 51°18.577 2°51.748 4 323 17.9 101350 81
2005-09-08 06:50 51°18.787 2°51.64 3.9 322 17.9 101350 82
2005-09-08 06:51 51°18.999 2°51.528 3.7 324 18 101350 82
2005-09-08 06:52 51°19.209 2°51.432 3.6 319 18 101350 83
2005-09-08 06:53 51°19.42 2°51.338 3.9 318 18 101350 83
2005-09-08 06:54 51°19.629 2°51.245 4.7 315 18.1 101350 83
2005-09-08 06:55 51°19.844 2°51.144 3.5 43 18.1 101340 82
2005-09-08 06:56 51°20.059 2°51.046 3.7 325 18.1 101340 83
2005-09-08 06:57 51°20.272 2°50.948 3.4 326 18.1 101340 83
2005-09-08 06:58 51°20.489 2°50.849 4.4 319 18.2 101340 84
2005-09-08 06:59 51°20.7 2°50.75 3.9 326 18.2 101340 84
2005-09-08 07:00 51°20.915 2°50.652 4.1 332 18.2 101340 84
2005-09-08 07:01 51°21.129 2°50.556 4.5 330 18.2 101340 84
2005-09-08 07:02 51°21.353 2°50.458 4.9 329 18.3 101340 85
2005-09-08 07:03 51°21.572 2°50.367 5.2 327 18.3 101350 84
2005-09-08 07:04 51°21.792 2°50.271 5.1 332 18.3 101350 84
2005-09-08 07:05 51°22.011 2°50.181 5 330 18.3 101340 85
2005-09-08 07:06 51°22.229 2°50.093 4.8 331 18.4 101340 84
2005-09-08 07:07 51°22.444 2°49.996 5.3 334 18.4 101340 85
2005-09-08 07:08 51°22.658 2°49.906 5 331 18.4 101350 86
2005-09-08 07:09 51°22.874 2°49.812 5.3 329 18.5 101340 86
2005-09-08 07:10 51°23.089 2°49.721 5.6 330 18.5 101350 86
2005-09-08 07:11 51°23.304 2°49.631 5.2 334 18.6 101340 87
2005-09-08 07:12 51°23.518 2°49.538 5.4 328 18.6 101350 87
2005-09-08 07:13 51°23.735 2°49.473 4.7 337 18.6 101350 87
2005-09-08 07:14 51°23.953 2°49.407 4.5 332 18.7 101350 88
2005-09-08 07:15 51°24.171 2°49.348 7.1 326 18.7 101350 88
2005-09-08 07:16 51°24.389 2°49.295 7 324 18.8 101340 86
2005-09-08 07:17 51°24.605 2°49.237 6.2 329 18.9 101350 85
2005-09-08 07:18 51°24.821 2°49.128 7.6 327 19 101340 84
2005-09-08 07:19 51°25.032 2°49.001 7.1 330 19 101340 84
2005-09-08 07:20 51°25.246 2°48.877 7.8 329 19.1 101340 83
2005-09-08 07:21 51°25.455 2°48.746 6.9 324 19 101350 83
2005-09-08 07:22 51°25.66 2°48.606 6.7 326 19.1 101340 83
2005-09-08 07:23 51°25.826 2°48.503 4.8 307 19.1 101350 84
2005-09-08 07:24 51°25.952 2°48.436 4.6 304 19.1 101350 84
2005-09-08 07:25 51°26.024 2°48.409 3.4 209 19.1 101350 84
2005-09-08 07:26 51°26.025 2°48.381 3.1 185 19.2 101360 85
2005-09-08 07:27 51°26.026 2°48.355 2.8 185 19.6 101360 82
2005-09-08 07:28 51°26.027 2°48.336 2.4 189 19.8 101360 79
2005-09-08 07:29 51°26.029 2°48.319 2.2 191 19.9 101360 80
2005-09-08 07:30 51°26.032 2°48.305 2.3 206 20 101360 79
2005-09-08 07:31 51°26.048 2°48.314 3.6 161 20.2 101360 79
2005-09-08 07:32 51°26.044 2°48.382 5.7 87 20.1 101360 78
2005-09-08 07:33 51°25.989 2°48.442 4.9 89 19.7 101350 80
2005-09-08 07:34 51°25.976 2°48.476 3.8 144 19.4 101360 81
2005-09-08 07:35 51°25.98 2°48.491 3.3 156 19.3 101360 82
2005-09-08 07:36 51°25.987 2°48.499 3.9 162 19.2 101370 83
2005-09-08 07:37 51°25.994 2°48.504 4.4 165 19.1 101370 84
2005-09-08 07:38 51°26.001 2°48.505 4 172 19 101370 83
2005-09-08 07:39 51°26.009 2°48.503 3.9 172 19 101370 83
2005-09-08 07:40 51°26.016 2°48.5 4.2 170 19 101370 84
2005-09-08 07:41 51°26.023 2°48.496 4 177 18.9 101370 84
2005-09-08 07:42 51°26.03 2°48.491 2.5 185 19 101370 85
2005-09-08 07:43 51°26.036 2°48.484 1.8 185 19.3 101370 84
2005-09-08 07:44 51°26.042 2°48.476 2.4 195 19.5 101370 84
2005-09-08 07:45 51°26.048 2°48.467 2.2 194 19.7 101370 82
2005-09-08 07:46 51°26.055 2°48.459 2.5 192 19.9 101380 80
2005-09-08 07:47 51°26.061 2°48.449 3.4 197 19.9 101380 80
2005-09-08 07:48 51°26.067 2°48.438 2.5 191 19.7 101370 79
2005-09-08 07:49 51°26.073 2°48.429 2.9 190 19.8 101380 80
2005-09-08 07:50 51°26.079 2°48.418 1.8 191 20 101370 80
2005-09-08 07:51 51°26.085 2°48.407 2.5 192 20 101370 80
2005-09-08 07:52 51°26.09 2°48.396 2.5 201 20.1 101370 79
2005-09-08 07:53 51°26.096 2°48.386 2.5 184 20.1 101370 79
2005-09-08 07:54 51°26.101 2°48.375 2.5 187 20.2 101380 79
2005-09-08 07:55 51°26.106 2°48.364 2.9 178 20.3 101370 79
2005-09-08 07:56 51°26.111 2°48.353 4.7 177 20.1 101370 79
2005-09-08 07:57 51°26.116 2°48.344 4.1 168 19.8 101370 79
2005-09-08 07:58 51°26.12 2°48.334 4.7 161 19.6 101370 81
2005-09-08 07:59 51°26.124 2°48.325 4.4 144 19.4 101380 83
2005-09-08 08:00 51°26.127 2°48.316 4 132 19.2 101370 85
2005-09-08 08:01 51°26.129 2°48.305 4.5 126 19.2 101370 86
2005-09-08 08:02 51°26.13 2°48.293 4.8 130 19.1 101380 86
2005-09-08 08:03 51°26.131 2°48.279 4.7 116 19.1 101370 86
2005-09-08 08:04 51°26.131 2°48.264 4.7 117 19.1 101370 87
2005-09-08 08:05 51°26.108 2°48.288 6.2 56 19 101380 87
2005-09-08 08:06 51°26.049 2°48.362 7.2 54 18.9 101370 88
2005-09-08 08:07 51°25.983 2°48.447 6.1 66 18.8 101370 88
2005-09-08 08:08 51°25.966 2°48.48 4.5 124 18.7 101380 88
2005-09-08 08:09 51°25.966 2°48.473 4.6 140 18.8 101370 89
2005-09-08 08:10 51°25.97 2°48.465 4.5 139 18.7 101380 88
2005-09-08 08:11 51°25.973 2°48.456 4.3 134 18.7 101370 88
2005-09-08 08:12 51°25.975 2°48.446 4.5 124 18.8 101370 88
2005-09-08 08:13 51°25.976 2°48.435 5.1 118 18.8 101370 87
2005-09-08 08:14 51°25.975 2°48.422 4.6 109 18.8 101380 87
2005-09-08 08:15 51°25.975 2°48.409 4.8 108 18.8 101380 87
2005-09-08 08:16 51°25.974 2°48.393 5 108 18.8 101380 87
2005-09-08 08:17 51°25.973 2°48.378 5.4 108 18.8 101380 87
2005-09-08 08:18 51°25.972 2°48.362 5.1 100 18.9 101380 87
2005-09-08 08:19 51°25.971 2°48.346 5.6 99 18.8 101380 86
2005-09-08 08:20 51°25.97 2°48.331 4.9 102 18.8 101380 86
2005-09-08 08:21 51°25.968 2°48.315 4.8 102 18.8 101380 86
2005-09-08 08:22 51°25.965 2°48.306 4.9 103 18.8 101380 87
2005-09-08 08:23 51°25.961 2°48.364 3.7 108 18.8 101380 87
2005-09-08 08:24 51°25.988 2°48.449 2.7 126 18.8 101380 87
2005-09-08 08:25 51°26.013 2°48.488 4.3 142 18.9 101390 86
2005-09-08 08:26 51°26.018 2°48.488 4.4 139 18.9 101390 86
2005-09-08 08:27 51°26.018 2°48.485 4.3 123 18.9 101390 86
2005-09-08 08:28 51°26.016 2°48.479 4.5 116 18.9 101390 86
2005-09-08 08:29 51°26.013 2°48.469 4.1 114 18.9 101390 86
2005-09-08 08:30 51°26.008 2°48.456 4.1 110 18.9 101390 87
2005-09-08 08:31 51°26.003 2°48.441 4.5 109 18.9 101390 86
2005-09-08 08:32 51°25.998 2°48.425 4.8 99 18.9 101390 86
2005-09-08 08:33 51°25.993 2°48.407 5.1 102 18.9 101390 86
2005-09-08 08:34 51°25.988 2°48.389 4.8 91 18.9 101390 86
2005-09-08 08:35 51°25.983 2°48.37 5.3 99 18.8 101390 87
2005-09-08 08:36 51°25.979 2°48.349 4.6 97 18.8 101390 86
2005-09-08 08:37 51°25.974 2°48.329 5.1 90 18.8 101390 87
2005-09-08 08:38 51°25.97 2°48.307 5.3 91 18.9 101390 87
2005-09-08 08:39 51°25.964 2°48.286 6 88 18.8 101390 87
2005-09-08 08:40 51°25.951 2°48.3 5.9 107 18.8 101390 87
2005-09-08 08:41 51°25.958 2°48.387 4.2 125 18.8 101400 87
2005-09-08 08:42 51°25.997 2°48.482 2.9 154 18.8 101400 87
2005-09-08 08:43 51°26.023 2°48.501 4.8 148 18.9 101400 87
2005-09-08 08:44 51°26.029 2°48.506 5.1 134 18.8 101390 87
2005-09-08 08:45 51°26.029 2°48.505 5.1 126 18.9 101400 87
2005-09-08 08:46 51°26.028 2°48.501 5.2 126 18.9 101390 88
2005-09-08 08:47 51°26.025 2°48.492 4.5 120 18.9 101400 87
2005-09-08 08:48 51°26.021 2°48.481 5.3 114 19 101390 87
2005-09-08 08:49 51°26.016 2°48.468 4.9 109 19 101390 86
2005-09-08 08:50 51°26.012 2°48.451 5.6 109 19 101390 86
2005-09-08 08:51 51°26.007 2°48.433 5 111 19 101390 86
2005-09-08 08:52 51°26.002 2°48.417 5 108 18.9 101390 86
2005-09-08 08:53 51°25.995 2°48.4 5.7 101 18.9 101390 86
2005-09-08 08:54 51°25.988 2°48.381 5.3 102 18.9 101390 86
2005-09-08 08:55 51°25.98 2°48.363 5.1 92 18.9 101390 86
2005-09-08 08:56 51°25.973 2°48.343 6 87 18.9 101390 87
2005-09-08 08:57 51°25.956 2°48.343 5.7 96 18.9 101390 87
2005-09-08 08:58 51°25.965 2°48.408 2.2 186 18.9 101390 87
2005-09-08 08:59 51°26.01 2°48.445 3.7 166 18.9 101400 87
2005-09-08 09:00 51°26.021 2°48.437 4.1 168 19 101400 87
2005-09-08 09:01 51°26.031 2°48.423 4.6 177 18.9 101400 87
2005-09-08 09:02 51°26.041 2°48.407 4.5 175 18.8 101400 87
2005-09-08 09:03 51°26.049 2°48.39 5.4 164 18.9 101410 87
2005-09-08 09:04 51°26.055 2°48.374 4.6 162 18.8 101400 87
2005-09-08 09:05 51°26.058 2°48.357 4.6 161 18.8 101410 87
2005-09-08 09:06 51°26.06 2°48.341 5.5 155 18.8 101400 87
2005-09-08 09:07 51°26.06 2°48.325 4.8 149 18.8 101400 87
2005-09-08 09:08 51°26.06 2°48.314 4.6 134 18.7 101400 86
2005-09-08 09:09 51°26.034 2°48.36 5.3 69 18.8 101390 86
2005-09-08 09:10 51°25.993 2°48.435 4 123 18.8 101400 87
2005-09-08 09:11 51°25.995 2°48.467 3.4 152 18.8 101400 86
2005-09-08 09:12 51°26 2°48.475 3.7 165 18.9 101400 86
2005-09-08 09:13 51°26.005 2°48.476 4.3 158 18.9 101410 87
2005-09-08 09:14 51°26.008 2°48.473 4.7 155 18.9 101400 86
2005-09-08 09:15 51°26.008 2°48.468 4.5 154 18.9 101410 86
2005-09-08 09:16 51°26.006 2°48.459 4.8 144 18.9 101400 86
2005-09-08 09:17 51°26.002 2°48.447 4.7 137 18.8 101400 85
2005-09-08 09:18 51°25.977 2°48.483 5.9 68 18.9 101400 86
2005-09-08 09:19 51°25.831 2°48.514 10.6 26 18.8 101390 86
2005-09-08 09:20 51°25.633 2°48.362 11.7 13 18.9 101390 86
2005-09-08 09:21 51°25.43 2°48.166 11.7 16 19 101390 85
2005-09-08 09:22 51°25.234 2°47.949 11.5 12 19 101390 85
2005-09-08 09:23 51°25.041 2°47.725 11.8 14 19.1 101380 85
2005-09-08 09:24 51°24.846 2°47.499 11.7 11 19.1 101380 85
2005-09-08 09:25 51°24.658 2°47.267 11.9 12 19.1 101380 84
2005-09-08 09:26 51°24.469 2°47.026 11.2 10 19.1 101380 84
2005-09-08 09:27 51°24.279 2°46.785 11.4 9 19.1 101390 84
2005-09-08 09:28 51°24.087 2°46.545 11.4 16 19 101380 85
2005-09-08 09:29 51°23.886 2°46.33 12 15 19.1 101380 85
2005-09-08 09:30 51°23.684 2°46.119 11.3 13 19 101380 84
2005-09-08 09:31 51°23.482 2°45.905 11.7 14 19.1 101390 84
2005-09-08 09:32 51°23.279 2°45.69 12.2 14 19.1 101390 84
2005-09-08 09:33 51°23.076 2°45.475 11.9 12 19.1 101390 83
2005-09-08 09:34 51°22.871 2°45.26 11.9 14 19.1 101390 84
2005-09-08 09:35 51°22.662 2°45.051 10.7 18 19.1 101390 84
2005-09-08 09:36 51°22.445 2°44.885 11.5 18 19.1 101390 84
2005-09-08 09:37 51°22.226 2°44.725 12.1 19 19.1 101400 84
2005-09-08 09:38 51°22.008 2°44.574 10.9 17 19.1 101400 84
2005-09-08 09:39 51°21.776 2°44.469 12 20 19.1 101400 84
2005-09-08 09:40 51°21.556 2°44.316 12.3 17 19.1 101400 83
2005-09-08 09:41 51°21.338 2°44.165 11.1 14 19.1 101400 83
2005-09-08 09:42 51°21.119 2°44.004 11.9 21 19.1 101400 83
2005-09-08 09:43 51°20.9 2°43.845 11.8 17 19.1 101400 83
2005-09-08 09:44 51°20.682 2°43.681 10.7 18 19.1 101410 83
2005-09-08 09:45 51°20.464 2°43.517 11.5 20 19.2 101410 83
2005-09-08 09:46 51°20.246 2°43.353 12.1 17 19.2 101410 82
2005-09-08 09:47 51°20.026 2°43.188 11.7 21 19.2 101420 82
2005-09-08 09:48 51°19.807 2°43.039 11.5 23 19.2 101410 82
2005-09-08 09:49 51°19.585 2°42.898 11.3 20 19.1 101410 82
2005-09-08 09:50 51°19.363 2°42.76 11 19 19.2 101410 82
2005-09-08 09:51 51°19.142 2°42.618 11.2 18 19.2 101420 83
2005-09-08 09:52 51°18.922 2°42.477 10.4 19 19.2 101420 82
2005-09-08 09:53 51°18.7 2°42.336 10.5 22 19.2 101420 82
2005-09-08 09:54 51°18.479 2°42.194 11 22 19.2 101420 82
2005-09-08 09:55 51°18.256 2°42.053 10.7 18 19.2 101410 82
2005-09-08 09:56 51°18.034 2°41.91 10.5 23 19.3 101420 81
2005-09-08 09:57 51°17.814 2°41.768 10.8 18 19.3 101420 80
2005-09-08 09:58 51°17.596 2°41.593 10.4 19 19.3 101410 80
2005-09-08 09:59 51°17.381 2°41.418 10.3 18 19.4 101410 80
2005-09-08 10:00 51°17.166 2°41.245 10.4 18 19.4 101410 80
2005-09-08 10:01 51°16.949 2°41.07 10.7 20 19.4 101410 80
2005-09-08 10:02 51°16.728 2°40.919 10.1 21 19.4 101410 79
2005-09-08 10:03 51°16.499 2°40.778 9.9 19 19.4 101410 79
2005-09-08 10:04 51°16.275 2°40.638 10.2 20 19.5 101400 78
2005-09-08 10:05 51°16.048 2°40.501 10.1 23 19.5 101400 78
2005-09-08 10:06 51°15.826 2°40.367 9.8 21 19.5 101410 77
2005-09-08 10:07 51°15.601 2°40.233 9.4 20 19.5 101410 76
2005-09-08 10:08 51°15.376 2°40.096 9.5 18 19.6 101410 77
2005-09-08 10:09 51°15.15 2°39.958 9.3 21 19.6 101400 77
2005-09-08 10:10 51°14.927 2°39.824 9.3 24 19.6 101400 76
2005-09-08 10:11 51°14.707 2°39.691 9.6 21 19.7 101400 76
2005-09-08 10:12 51°14.49 2°39.537 9.4 21 19.7 101400 76
2005-09-08 10:13 51°14.274 2°39.387 9 19 19.7 101410 75
2005-09-08 10:14 51°14.06 2°39.236 8.9 19 19.7 101410 75
2005-09-08 10:15 51°13.843 2°39.079 9.2 23 19.8 101400 75
2005-09-08 10:16 51°13.625 2°38.92 9.5 24 19.8 101400 75
2005-09-08 10:17 51°13.411 2°38.76 9.1 24 19.8 101410 75
2005-09-08 10:18 51°13.194 2°38.599 9.8 22 19.8 101400 73
2005-09-08 10:19 51°12.974 2°38.439 9.8 28 19.8 101400 73
2005-09-08 10:20 51°12.754 2°38.28 9.5 25 19.8 101410 73
2005-09-08 10:21 51°12.536 2°38.119 9.7 22 19.8 101410 74
2005-09-08 10:22 51°12.317 2°37.966 9.3 24 19.8 101410 74
2005-09-08 10:23 51°12.087 2°37.858 9.3 30 19.8 101400 73
2005-09-08 10:24 51°11.865 2°37.72 9 25 19.8 101400 73
2005-09-08 10:25 51°11.644 2°37.572 8.7 26 19.8 101400 74
2005-09-08 10:26 51°11.424 2°37.421 9 26 19.8 101400 74
2005-09-08 10:27 51°11.206 2°37.26 9.1 26 19.8 101400 75
2005-09-08 10:28 51°10.989 2°37.1 8.9 27 19.8 101400 74
2005-09-08 10:29 51°10.778 2°36.939 8.8 24 19.7 101400 74
2005-09-08 10:30 51°10.569 2°36.769 8.6 25 19.8 101400 73
2005-09-08 10:31 51°10.365 2°36.588 8.5 30 19.8 101400 73
2005-09-08 10:32 51°10.141 2°36.537 6 42 19.7 101400 74
2005-09-08 10:33 51°9.928 2°36.642 5.6 43 19.5 101400 73
2005-09-08 10:34 51°9.716 2°36.761 5.4 40 19.5 101400 73
2005-09-08 10:35 51°9.507 2°36.879 5.1 45 19.4 101400 72
2005-09-08 10:36 51°9.313 2°36.984 3.1 61 19.4 101390 74
2005-09-08 10:37 51°9.189 2°37.074 1.3 108 19.4 101400 71
2005-09-08 10:38 51°9.127 2°37.17 0.6 222 19.5 101400 70
2005-09-08 10:39 51°9.105 2°37.225 3.2 225 19.7 101400 69
2005-09-08 10:40 51°9.096 2°37.223 3.7 236 19.7 101400 70
2005-09-08 10:41 51°9.088 2°37.217 3.2 247 19.8 101400 71
2005-09-08 10:42 51°9.083 2°37.21 2.7 253 19.8 101400 71
2005-09-08 10:43 51°9.078 2°37.203 3.3 263 19.8 101400 69
2005-09-08 10:44 51°9.074 2°37.196 2.3 257 19.8 101400 70
2005-09-08 10:45 51°9.071 2°37.19 2.9 259 19.8 101400 72
2005-09-08 10:46 51°9.069 2°37.185 2.5 259 19.8 101400 69
2005-09-08 10:47 51°9.068 2°37.182 2.6 259 19.8 101400 70
2005-09-08 10:48 51°9.067 2°37.181 4 263 19.9 101400 72
2005-09-08 10:49 51°9.066 2°37.18 3.3 261 19.9 101400 72
2005-09-08 10:50 51°9.065 2°37.179 3.4 263 19.9 101400 73
2005-09-08 10:51 51°9.064 2°37.18 3.6 263 19.9 101400 74
2005-09-08 10:52 51°9.064 2°37.18 3.4 266 19.9 101400 74
2005-09-08 10:53 51°9.064 2°37.18 3.8 276 19.9 101400 75
2005-09-08 10:54 51°9.065 2°37.179 3.4 269 19.9 101400 76
2005-09-08 10:55 51°9.065 2°37.179 3.8 269 20 101400 76
2005-09-08 10:56 51°9.065 2°37.179 4.1 271 19.9 101390 77
2005-09-08 10:57 51°9.066 2°37.179 3.9 266 20 101390 78
2005-09-08 10:58 51°9.067 2°37.179 3.7 273 20 101390 77
2005-09-08 10:59 51°9.068 2°37.18 4.4 269 19.9 101390 78
2005-09-08 11:00 51°9.069 2°37.181 3.7 273 19.9 101390 78
2005-09-08 11:01 51°9.071 2°37.183 4.1 277 20 101390 78
2005-09-08 11:02 51°9.071 2°37.184 4.6 273 20 101380 78
2005-09-08 11:03 51°9.072 2°37.186 3.6 278 20 101380 76
2005-09-08 11:04 51°9.073 2°37.19 3.8 276 20.1 101380 77
2005-09-08 11:05 51°9.074 2°37.191 3.3 274 20.1 101380 77
2005-09-08 11:06 51°9.075 2°37.194 3.4 278 20.1 101380 77
2005-09-08 11:07 51°9.076 2°37.196 3.8 275 20.2 101380 77
2005-09-08 11:08 51°9.077 2°37.197 3.8 269 20.2 101380 76
2005-09-08 11:09 51°9.078 2°37.199 3.6 270 20.2 101380 76
2005-09-08 11:10 51°9.079 2°37.202 3.9 270 20.2 101380 77
2005-09-08 11:11 51°9.079 2°37.205 4 272 20.1 101380 76
2005-09-08 11:12 51°9.079 2°37.209 3.9 267 20.1 101370 78
2005-09-08 11:13 51°9.079 2°37.213 3.9 277 20.1 101370 77
2005-09-08 11:14 51°9.079 2°37.217 3.5 274 20.1 101370 78
2005-09-08 11:15 51°9.08 2°37.221 3.8 272 20.1 101370 79
2005-09-08 11:16 51°9.081 2°37.225 4 272 20.1 101370 78
2005-09-08 11:17 51°9.081 2°37.23 3.4 272 20.1 101370 78
2005-09-08 11:18 51°9.081 2°37.235 3 278 20.1 101370 78
2005-09-08 11:19 51°9.081 2°37.236 2.8 275 20.1 101370 78
2005-09-08 11:20 51°9.081 2°37.241 3.6 278 20.1 101370 78
2005-09-08 11:21 51°9.081 2°37.243 3.5 277 20.2 101370 78
2005-09-08 11:22 51°9.081 2°37.246 3.3 272 20.2 101370 77
2005-09-08 11:23 51°9.079 2°37.247 3.7 271 20.3 101370 77
2005-09-08 11:24 51°9.078 2°37.25 3.2 272 20.3 101380 76
2005-09-08 11:25 51°9.077 2°37.251 2.9 280 20.4 101370 76
2005-09-08 11:26 51°9.076 2°37.251 2.5 286 20.4 101370 77
2005-09-08 11:27 51°9.075 2°37.252 2.4 284 20.5 101370 77
2005-09-08 11:28 51°9.075 2°37.252 2.6 287 20.5 101370 76
2005-09-08 11:29 51°9.074 2°37.252 2.4 278 20.6 101370 75
2005-09-08 11:30 51°9.073 2°37.252 2.3 282 20.6 101370 75
2005-09-08 11:31 51°9.072 2°37.252 2.5 286 20.7 101370 75
2005-09-08 11:32 51°9.072 2°37.252 2.4 289 20.8 101370 75
2005-09-08 11:33 51°9.072 2°37.251 2.2 284 20.8 101370 73
2005-09-08 11:34 51°9.071 2°37.251 2.3 299 20.8 101370 73
2005-09-08 11:35 51°9.072 2°37.25 2.3 294 20.9 101370 73
2005-09-08 11:36 51°9.071 2°37.25 2.7 297 20.9 101360 73
2005-09-08 11:37 51°9.071 2°37.249 2.5 296 20.9 101370 71
2005-09-08 11:38 51°9.071 2°37.249 2 302 21 101360 70
2005-09-08 11:39 51°9.071 2°37.249 2.4 309 21 101360 71
2005-09-08 11:40 51°9.072 2°37.25 2.3 306 21 101360 71
2005-09-08 11:41 51°9.072 2°37.251 2.3 310 21 101360 71
2005-09-08 11:42 51°9.072 2°37.251 2.3 304 21 101360 72
2005-09-08 11:43 51°9.071 2°37.254 2.4 301 21 101350 71
2005-09-08 11:44 51°9.071 2°37.256 2.5 301 21.1 101350 72
2005-09-08 11:45 51°9.071 2°37.259 2.2 296 21.1 101350 70
2005-09-08 11:46 51°9.073 2°37.264 2.7 308 21.2 101350 70
2005-09-08 11:47 51°9.123 2°37.365 5.8 342 21.1 101340 70
2005-09-08 11:48 51°9.227 2°37.622 7.4 348 20.9 101340 71
2005-09-08 11:49 51°9.321 2°37.917 8 350 20.9 101340 72
2005-09-08 11:50 51°9.417 2°38.213 7.8 350 20.8 101340 72
2005-09-08 11:51 51°9.513 2°38.509 7.3 349 20.8 101340 72
2005-09-08 11:52 51°9.592 2°38.816 7.2 349 20.8 101340 73
2005-09-08 11:53 51°9.673 2°39.124 7.4 350 20.7 101340 72
2005-09-08 11:54 51°9.754 2°39.435 7.3 349 20.7 101340 72
2005-09-08 11:55 51°9.836 2°39.742 7.5 348 20.6 101330 73
2005-09-08 11:56 51°9.919 2°40.045 7.5 349 20.6 101330 72
2005-09-08 11:57 51°10.001 2°40.354 7.6 348 20.6 101330 73
2005-09-08 11:58 51°10.082 2°40.659 7.4 347 20.6 101330 71
2005-09-08 11:59 51°10.163 2°40.961 7.9 348 20.6 101320 72
2005-09-08 12:00 51°10.245 2°41.267 7.7 347 20.6 101320 71
2005-09-08 12:01 51°10.329 2°41.579 7.6 345 20.6 101330 72
2005-09-08 12:02 51°10.414 2°41.891 7.7 345 20.6 101320 72
2005-09-08 12:03 51°10.497 2°42.2 7.6 343 20.6 101320 72
2005-09-08 12:04 51°10.582 2°42.513 7.8 342 20.6 101320 72
2005-09-08 12:05 51°10.669 2°42.821 8 342 20.5 101320 71
2005-09-08 12:06 51°10.754 2°43.13 8.2 345 20.5 101320 72
2005-09-08 12:07 51°10.839 2°43.436 7.6 341 20.5 101320 71
2005-09-08 12:08 51°10.925 2°43.746 6.9 340 20.5 101320 71
2005-09-08 12:09 51°11.01 2°44.051 7.2 343 20.5 101320 70
2005-09-08 12:10 51°11.095 2°44.361 7.5 344 20.5 101320 71
2005-09-08 12:11 51°11.166 2°44.673 8.2 344 20.5 101320 72
2005-09-08 12:12 51°11.258 2°44.976 7.9 345 20.5 101320 72
2005-09-08 12:13 51°11.349 2°45.273 7.8 344 20.5 101320 72
2005-09-08 12:14 51°11.439 2°45.569 7.6 342 20.5 101320 72
2005-09-08 12:15 51°11.526 2°45.87 7.1 342 20.5 101310 72
2005-09-08 12:16 51°11.607 2°46.175 7.7 344 20.5 101320 72
2005-09-08 12:17 51°11.688 2°46.48 7.8 344 20.5 101320 72
2005-09-08 12:18 51°11.769 2°46.787 7.9 345 20.5 101320 73
2005-09-08 12:19 51°11.853 2°47.095 7.8 344 20.5 101320 73
2005-09-08 12:20 51°11.939 2°47.399 7.6 348 20.5 101320 72
2005-09-08 12:21 51°12.026 2°47.702 7.6 347 20.6 101320 73
2005-09-08 12:22 51°12.115 2°48.006 7.8 350 20.6 101320 71
2005-09-08 12:23 51°12.201 2°48.31 7.4 349 20.6 101320 72
2005-09-08 12:24 51°12.294 2°48.607 7.3 352 20.7 101320 72
2005-09-08 12:25 51°12.402 2°48.892 7.8 352 20.7 101320 72
2005-09-08 12:26 51°12.511 2°49.179 7.9 350 20.8 101320 71
2005-09-08 12:27 51°12.617 2°49.468 7.7 348 20.7 101320 70
2005-09-08 12:28 51°12.722 2°49.76 7.9 348 20.8 101320 71
2005-09-08 12:29 51°12.825 2°50.052 7.5 347 20.8 101310 71
2005-09-08 12:30 51°12.93 2°50.347 8 346 20.9 101320 69
2005-09-08 12:31 51°13.035 2°50.644 7.7 350 20.9 101320 69
2005-09-08 12:32 51°13.141 2°50.945 7.4 348 20.9 101310 67
2005-09-08 12:33 51°13.245 2°51.242 7.6 346 21 101310 67
2005-09-08 12:34 51°13.351 2°51.539 7.8 349 21 101320 68
2005-09-08 12:35 51°13.47 2°51.827 8.1 351 21 101320 67
2005-09-08 12:36 51°13.59 2°52.118 8.5 353 21 101310 69
2005-09-08 12:37 51°13.709 2°52.409 8.6 351 21 101310 69
2005-09-08 12:38 51°13.825 2°52.698 7.8 349 21 101310 67
2005-09-08 12:39 51°13.944 2°52.989 8.1 347 21 101310 67
2005-09-08 12:40 51°14.061 2°53.281 8.4 346 21.1 101300 68
2005-09-08 12:41 51°14.178 2°53.573 8.8 351 21.1 101300 67
2005-09-08 12:42 51°14.29 2°53.873 8.1 348 21.1 101310 67
2005-09-08 12:43 51°14.379 2°54.191 7.8 343 21.1 101300 67
2005-09-08 12:44 51°14.425 2°54.518 6.8 339 21.1 101300 66
2005-09-08 12:45 51°14.408 2°54.843 6.6 340 21.1 101300 67
2005-09-08 12:46 51°14.356 2°55.125 4.6 342 21 101310 67
2005-09-08 12:47 51°14.254 2°55.316 3 1 21 101310 68
2005-09-08 12:48 51°14.124 2°55.429 2.4 357 21 101310 68
2005-09-08 12:49 51°13.989 2°55.524 1.9 357 21.1 101310 67
2005-09-08 12:50 51°13.873 2°55.604 0.8 354 21.2 101310 65
2005-09-08 12:51 51°13.779 2°55.678 0.5 351 21.3 101310 63
2005-09-08 12:52 51°13.717 2°55.787 1.1 286 21.5 101310 58
2005-09-08 12:53 51°13.679 2°55.895 2 286 21.7 101310 57
2005-09-08 12:54 51°13.664 2°55.957 2 216 21.9 101300 56
2005-09-08 12:55 51°13.662 2°55.96 2.7 227 22 101300 57
2005-09-08 12:56 51°13.662 2°55.96 2.7 235 22.1 101300 54
2005-09-08 12:57 51°13.662 2°55.959 3 223 22.1 101310 55
2005-09-08 12:58 51°13.662 2°55.959 1.8 219 22.1 101300 54
2005-09-08 12:59 51°13.663 2°55.959 2.5 225 22.2 101300 55
2005-09-08 13:00 51°13.662 2°55.959 2.2 208 22.3 101300 53
2005-09-08 13:01 51°13.663 2°55.959 3.3 233 22.4 101290 53
2005-09-08 13:02 51°13.663 2°55.959 2.1 231 22.4 101290 57
2005-09-08 13:03 51°13.662 2°55.958 1 198 22.3 101290 55
2005-09-08 13:04 51°13.663 2°55.959 3.3 225 22.4 101290 54
2005-09-08 13:05 51°13.663 2°55.959 3.3 231 22.3 101280 55
2005-09-08 13:38 51°13.663 2°55.96 2.8 241 22 101260 52
2005-09-08 13:39 51°13.662 2°55.958 3 216 22.1 101250 52
2005-09-08 13:40 51°13.663 2°55.958 3.2 230 22.1 101250 54
2005-09-08 13:41 51°13.664 2°55.959 1.6 230 22 101250 53
2005-09-08 13:42 51°13.663 2°55.958 3.4 246 22.1 101250 55
2005-09-08 13:43 51°13.662 2°55.959 2.8 228 22.1 101250 53
2005-09-08 13:44 51°13.663 2°55.96 2.2 249 22.2 101250 57
2005-09-08 13:45 51°13.662 2°55.96 2.4 200 22.3 101250 56
2005-09-08 13:46 51°13.662 2°55.96 2.8 218 22.2 101250 59
2005-09-08 13:47 51°13.662 2°55.959 3.4 222 22 101260 58
2005-09-08 13:49 51°13.662 2°55.962 3 216 22 101250 56
2005-09-08 13:49 51°13.663 2°55.959 3.6 244 21.9 101260 54
2005-09-08 13:51 51°13.663 2°55.96 3.1 240 21.8 101250 57
2005-09-08 13:52 51°13.663 2°55.96 1.7 274 21.8 101250 57